Time;durP1;ratioP1;P1;durP2;ratioP2;P2;SDS_P1;SDS_P2;PMS_P1;PMS_P2;Temp;Humidity;BMP_temperature;BMP_pressure;BME280_temperature;BME280_humidity;BME280_pressure;Samples;Min_cycle;Max_cycle;Signal;HPM_P1;HPM_P2
2024/02/23 00:01:45;;;;;;;3.33;0.82;;;;;;;4.13;100.00;98827.97;5069202;28;20301;-39
2024/02/23 00:04:11;;;;;;;2.45;1.02;;;;;;;4.16;100.00;98829.38;5069779;28;20048;-39
2024/02/23 00:06:36;;;;;;;1.75;0.90;;;;;;;4.20;100.00;98839.38;5061199;28;20032;-39
2024/02/23 00:09:02;;;;;;;2.83;1.50;;;;;;;4.17;100.00;98826.47;5056505;28;20033;-39
2024/02/23 00:11:30;;;;;;;2.90;1.40;;;;;;;4.19;100.00;98839.59;5056145;28;20346;-39
2024/02/23 00:13:56;;;;;;;2.83;1.48;;;;;;;4.21;100.00;98838.31;5056576;28;20365;-39
2024/02/23 00:16:21;;;;;;;3.97;1.73;;;;;;;4.13;100.00;98820.78;5056132;28;20035;-39
2024/02/23 00:18:46;;;;;;;6.40;1.90;;;;;;;4.21;100.00;98837.50;5056891;28;20040;-39
2024/02/23 00:21:12;;;;;;;5.25;1.60;;;;;;;4.22;100.00;98842.63;5056550;28;20029;-39
2024/02/23 00:23:37;;;;;;;4.37;1.70;;;;;;;4.23;100.00;98840.75;5056258;28;20139;-39
2024/02/23 00:26:03;;;;;;;4.07;1.80;;;;;;;4.25;100.00;98839.47;5055873;28;20025;-39
2024/02/23 00:28:28;;;;;;;4.07;1.38;;;;;;;4.24;100.00;98848.53;5056199;28;20021;-39
2024/02/23 00:30:53;;;;;;;4.20;1.37;;;;;;;4.25;100.00;98847.50;5055824;28;20072;-39
2024/02/23 00:33:19;;;;;;;3.13;1.73;;;;;;;4.23;100.00;98843.41;5055540;28;20055;-39
2024/02/23 00:35:44;;;;;;;2.73;1.23;;;;;;;4.23;100.00;98849.56;5055974;28;20025;-40
2024/02/23 00:38:09;;;;;;;3.10;1.20;;;;;;;4.23;100.00;98841.56;5055691;28;20033;-40
2024/02/23 00:40:35;;;;;;;2.20;1.40;;;;;;;4.23;100.00;98844.22;5055426;28;20477;-39
2024/02/23 00:43:01;;;;;;;5.47;1.50;;;;;;;4.26;100.00;98861.69;5055931;28;20049;-39
2024/02/23 00:45:26;;;;;;;3.08;1.15;;;;;;;4.28;100.00;98871.09;5055547;28;20078;-39
2024/02/23 00:47:52;;;;;;;5.03;1.40;;;;;;;4.22;100.00;98849.81;5055782;28;20028;-39
2024/02/23 00:50:17;;;;;;;2.17;0.90;;;;;;;4.27;100.00;98874.81;5055286;28;20029;-39
2024/02/23 00:52:43;;;;;;;3.83;1.17;;;;;;;4.29;100.00;98870.03;5054236;28;20055;-39
2024/02/23 00:55:08;;;;;;;2.85;1.13;;;;;;;4.17;100.00;98863.09;5056315;28;20132;-39
2024/02/23 00:57:35;;;;;;;4.82;1.00;;;;;;;4.26;100.00;98891.13;5055665;28;20368;-39
2024/02/23 01:00:02;;;;;;;4.38;0.80;;;;;;;4.14;100.00;98875.06;5056189;28;20032;-40
2024/02/23 01:02:28;;;;;;;3.30;0.90;;;;;;;4.27;100.00;98888.19;5055833;28;20043;-39
2024/02/23 01:04:56;;;;;;;3.15;0.95;;;;;;;4.27;100.00;98896.22;5055264;28;20512;-39
2024/02/23 01:07:22;;;;;;;3.22;1.10;;;;;;;4.26;100.00;98894.59;5055409;28;20029;-39
2024/02/23 01:09:47;;;;;;;2.53;0.70;;;;;;;4.25;100.00;98890.31;5055443;28;20025;-39
2024/02/23 01:12:13;;;;;;;4.30;1.23;;;;;;;4.26;100.00;98891.94;5054811;28;20056;-39
2024/02/23 01:14:38;;;;;;;2.17;0.67;;;;;;;4.22;100.00;98898.78;5054718;28;20020;-39
2024/02/23 01:17:03;;;;;;;3.67;1.07;;;;;;;4.22;100.00;98885.41;5054657;28;20032;-39
2024/02/23 01:19:29;;;;;;;4.70;1.70;;;;;;;4.27;100.00;98906.91;5054880;28;20087;-39
2024/02/23 01:21:59;;;;;;;2.70;1.10;;;;;;;4.27;100.00;98912.28;5054932;28;20028;-39
2024/02/23 01:24:30;;;;;;;4.40;0.80;;;;;;;4.20;100.00;98906.25;5054537;28;20032;-39
2024/02/23 01:26:56;;;;;;;3.60;0.90;;;;;;;4.26;100.00;98913.31;5055262;28;20025;-39
2024/02/23 01:29:22;;;;;;;3.22;1.15;;;;;;;4.20;100.00;98906.25;5054476;28;20112;-39
2024/02/23 01:31:48;;;;;;;2.90;0.80;;;;;;;4.20;100.00;98903.59;5054647;28;20025;-39
2024/02/23 01:34:14;;;;;;;;;;;;;;;4.29;100.00;98920.06;5055806;28;20377;-39
2024/02/23 01:36:39;;;;;;;3.00;0.80;;;;;;;4.26;100.00;98917.88;5054537;28;19913;-39
2024/02/23 01:39:05;;;;;;;4.33;1.00;;;;;;;4.27;100.00;98917.63;5055091;28;20028;-39
2024/02/23 01:41:30;;;;;;;3.13;0.97;;;;;;;4.23;100.00;98908.44;5054215;28;20428;-39
2024/02/23 01:43:55;;;;;;;3.90;1.43;;;;;;;4.31;100.00;98921.47;5055303;28;20021;-39
2024/02/23 01:46:21;;;;;;;6.53;0.90;;;;;;;4.28;100.00;98913.09;5054701;28;20025;-39
2024/02/23 01:48:46;;;;;;;5.50;0.90;;;;;;;4.33;100.00;98931.91;5053940;28;20114;-39
2024/02/23 01:51:12;;;;;;;2.60;0.90;;;;;;;4.27;100.00;98925.66;5054275;28;20025;-39
2024/02/23 01:53:38;;;;;;;4.50;1.05;;;;;;;4.33;100.00;98931.91;5054556;28;20735;-39
2024/02/23 01:56:04;;;;;;;6.18;1.63;;;;;;;4.35;100.00;98930.63;5054206;28;20405;-39
2024/02/23 01:58:30;;;;;;;6.85;1.25;;;;;;;4.33;100.00;98926.56;5054229;28;20461;-39
2024/02/23 02:00:56;;;;;;;3.72;1.30;;;;;;;4.33;100.00;98930.06;5054052;28;20038;-39
2024/02/23 02:03:21;;;;;;;2.40;0.80;;;;;;;4.35;100.00;98930.63;5054392;28;20052;-39
2024/02/23 02:05:47;;;;;;;4.77;1.10;;;;;;;4.34;100.00;98918.31;5054069;28;20597;-39
2024/02/23 02:08:12;;;;;;;6.07;1.00;;;;;;;4.39;100.00;98931.81;5054041;28;20043;-39
2024/02/23 02:10:38;;;;;;;4.63;1.63;;;;;;;4.28;100.00;98911.22;5054221;28;20032;-40
2024/02/23 02:13:06;;;;;;;2.77;1.10;;;;;;;4.37;100.00;98927.72;5054750;28;20029;-39
2024/02/23 02:15:31;;;;;;;2.85;0.80;;;;;;;4.45;100.00;98938.06;5054024;28;20040;-39
2024/02/23 02:17:57;;;;;;;4.23;1.27;;;;;;;4.44;100.00;98932.94;5054408;28;20432;-39
2024/02/23 02:20:26;;;;;;;6.33;1.40;;;;;;;4.37;100.00;98931.22;5054342;28;20082;-39
2024/02/23 02:22:51;;;;;;;5.55;1.00;;;;;;;4.39;100.00;98937.16;5053706;28;20090;-39
2024/02/23 02:25:17;;;;;;;3.35;1.10;;;;;;;4.41;100.00;98952.16;5053800;28;20025;-39
2024/02/23 02:27:45;;;;;;;4.70;1.20;;;;;;;4.32;100.00;98931.09;5053372;28;20117;-39
2024/02/23 02:30:11;;;;;;;6.35;1.38;;;;;;;4.39;100.00;98941.66;5053710;28;20417;-39
2024/02/23 02:32:36;;;;;;;;;;;;;;;4.42;100.00;98945.75;5053709;28;20539;-39
2024/02/23 02:35:02;;;;;;;4.28;0.88;;;;;;;4.29;100.00;98942.28;5053788;28;19913;-39
2024/02/23 02:37:27;;;;;;;4.20;0.90;;;;;;;4.31;100.00;98942.88;5053565;28;20033;-39
2024/02/23 02:39:52;;;;;;;5.10;1.30;;;;;;;4.17;100.00;98936.16;5054106;28;20256;-39
2024/02/23 02:42:18;;;;;;;4.60;1.10;;;;;;;4.24;100.00;98962.75;5053191;28;20048;-39
2024/02/23 02:44:43;;;;;;;4.43;1.00;;;;;;;4.24;100.00;98968.09;5053993;28;20104;-39
2024/02/23 02:47:08;;;;;;;2.47;0.73;;;;;;;4.18;100.00;98961.84;5054087;28;20368;-39
2024/02/23 02:49:34;;;;;;;2.43;0.90;;;;;;;4.23;100.00;98975.31;5053498;28;20131;-39
2024/02/23 02:51:59;;;;;;;4.27;1.13;;;;;;;4.27;100.00;98981.84;5053421;28;20025;-39
2024/02/23 02:54:24;;;;;;;7.47;1.40;;;;;;;4.25;100.00;98977.78;5053571;28;20354;-39
2024/02/23 02:56:53;;;;;;;3.87;1.67;;;;;;;4.25;100.00;98977.78;5053997;28;20033;-39
2024/02/23 02:59:19;;;;;;;4.35;0.95;;;;;;;4.22;100.00;98981.72;5053916;28;20025;-39
2024/02/23 03:01:45;;;;;;;5.28;1.00;;;;;;;4.11;100.00;98964.66;5053605;28;20032;-40
2024/02/23 03:04:11;;;;;;;6.18;1.70;;;;;;;4.18;100.00;98972.53;5053080;28;20028;-39
2024/02/23 03:06:36;;;;;;;4.20;1.00;;;;;;;4.21;100.00;98976.63;5053311;28;20033;-39
2024/02/23 03:09:02;;;;;;;4.40;1.30;;;;;;;4.13;100.00;98975.91;5053861;28;20033;-40
2024/02/23 03:11:28;;;;;;;4.25;1.13;;;;;;;4.15;100.00;98970.34;5053729;28;20040;-40
2024/02/23 03:13:53;;;;;;;3.97;1.30;;;;;;;4.21;100.00;98980.13;5053453;28;20461;-39
2024/02/23 03:16:20;;;;;;;4.83;1.10;;;;;;;4.26;100.00;98995.47;5053276;28;20460;-39
2024/02/23 03:18:46;;;;;;;4.25;1.10;;;;;;;4.26;100.00;98985.56;5053469;28;20427;-40
2024/02/23 03:21:13;;;;;;;4.25;1.63;;;;;;;4.25;100.00;99000.00;5053111;28;20037;-39
2024/02/23 03:23:38;;;;;;;3.10;0.88;;;;;;;4.18;100.00;98980.56;5053393;28;20053;-39
2024/02/23 03:26:03;;;;;;;3.97;1.13;;;;;;;4.24;100.00;98997.53;5053129;28;20063;-39
2024/02/23 03:28:29;;;;;;;3.17;1.13;;;;;;;4.18;100.00;98993.94;5053672;28;20407;-39
2024/02/23 03:30:54;;;;;;;4.60;0.97;;;;;;;4.20;100.00;98989.19;5052809;28;20030;-39
2024/02/23 03:33:20;;;;;;;4.80;1.50;;;;;;;4.23;100.00;98990.56;5052755;28;20039;-40
2024/02/23 03:35:45;;;;;;;3.05;1.00;;;;;;;4.22;100.00;98989.75;5052639;28;20052;-40
2024/02/23 03:38:11;;;;;;;3.67;1.10;;;;;;;4.12;100.00;98978.84;5053004;28;20029;-39
2024/02/23 03:40:36;;;;;;;5.33;1.00;;;;;;;4.20;100.00;98996.38;5052648;28;20025;-39
2024/02/23 03:43:02;;;;;;;2.90;0.80;;;;;;;4.17;100.00;98989.66;5057246;28;20053;-39
2024/02/23 03:45:28;;;;;;;2.83;1.00;;;;;;;4.12;100.00;98982.31;5056686;28;20025;-39
2024/02/23 03:47:53;;;;;;;5.20;0.93;;;;;;;4.21;100.00;98993.50;5056998;28;20560;-39
2024/02/23 03:50:19;;;;;;;2.42;0.80;;;;;;;4.17;100.00;98997.69;5056717;28;20389;-39
2024/02/23 03:52:44;;;;;;;3.92;1.15;;;;;;;4.15;100.00;98986.41;5056284;28;20021;-39
2024/02/23 03:55:10;;;;;;;3.73;1.23;;;;;;;4.19;100.00;98998.25;5056282;28;20416;-39
2024/02/23 03:57:36;;;;;;;4.25;1.02;;;;;;;4.22;100.00;98989.75;5057324;28;20025;-39
2024/02/23 04:00:02;;;;;;;2.97;1.20;;;;;;;4.26;100.00;99006.97;5057293;28;20032;-39
2024/02/23 04:02:28;;;;;;;4.78;1.30;;;;;;;4.25;100.00;98991.16;5055687;28;20027;-39
2024/02/23 04:04:53;;;;;;;5.50;0.95;;;;;;;4.16;100.00;98985.34;5056412;28;20483;-39
2024/02/23 04:07:19;;;;;;;5.35;1.42;;;;;;;4.25;100.00;98983.94;5056332;28;20028;-39
2024/02/23 04:09:45;;;;;;;3.38;1.25;;;;;;;4.35;100.00;99000.22;5055862;28;20033;-38
2024/02/23 04:12:10;;;;;;;8.10;2.20;;;;;;;4.39;100.00;99001.38;5056708;28;20021;-39
2024/02/23 04:14:36;;;;;;;4.53;1.37;;;;;;;4.41;100.00;99003.00;5056392;28;20377;-39
2024/02/23 04:17:03;;;;;;;5.60;1.50;;;;;;;4.39;100.00;98989.84;5056156;28;20465;-39
2024/02/23 04:19:28;;;;;;;2.67;1.13;;;;;;;4.36;100.00;98985.78;5056350;28;20027;-39
2024/02/23 04:21:53;;;;;;;6.70;1.10;;;;;;;4.37;100.00;98984.72;5055674;28;20428;-39
2024/02/23 04:24:19;;;;;;;3.30;1.47;;;;;;;4.43;100.00;99004.38;5055991;28;20036;-39
2024/02/23 04:26:44;;;;;;;8.37;1.27;;;;;;;4.42;100.00;99012.66;5056378;28;20087;-39
2024/02/23 04:29:09;;;;;;;6.40;1.30;;;;;;;4.44;100.00;99015.91;5056486;28;20067;-39
2024/02/23 04:31:37;;;;;;;4.93;1.33;;;;;;;4.43;100.00;99022.31;5056632;28;20021;-39
2024/02/23 04:34:03;;;;;;;5.07;1.27;;;;;;;4.44;100.00;99015.91;5055596;28;20054;-39
2024/02/23 04:36:29;;;;;;;6.68;1.35;;;;;;;4.45;100.00;99021.03;5055360;28;20029;-39
2024/02/23 04:38:54;;;;;;;4.32;1.27;;;;;;;4.51;100.00;99029.97;5056477;28;20056;-39
2024/02/23 04:41:24;;;;;;;5.07;1.10;;;;;;;4.48;100.00;99022.41;5055653;28;20526;-39
2024/02/23 04:43:50;;;;;;;5.05;1.00;;;;;;;4.52;100.00;99026.25;5055370;28;20252;-39
2024/02/23 04:46:15;;;;;;;3.85;1.00;;;;;;;4.47;100.00;99023.47;5055279;28;20025;-39
2024/02/23 04:48:41;;;;;;;6.03;1.30;;;;;;;4.47;100.00;99020.78;5056397;28;20040;-39
2024/02/23 04:51:09;;;;;;;7.20;1.60;;;;;;;4.50;100.00;99028.34;5055813;28;20268;-39
2024/02/23 04:53:38;;;;;;;4.82;1.45;;;;;;;4.54;100.00;99030.34;5055922;28;20025;-40
2024/02/23 04:56:04;;;;;;;3.75;1.00;;;;;;;4.55;100.00;99026.59;5055951;28;20069;-39
2024/02/23 04:58:29;;;;;;;4.80;1.13;;;;;;;4.60;100.00;99023.22;5055433;28;20457;-40
2024/02/23 05:00:55;;;;;;;6.23;1.40;;;;;;;4.59;100.00;99025.09;5055372;28;20032;-39
2024/02/23 05:03:21;;;;;;;5.93;1.92;;;;;;;4.60;100.00;99028.56;5055866;28;20104;-39
2024/02/23 05:05:46;;;;;;;5.10;1.30;;;;;;;4.63;100.00;99038.78;5054991;28;20083;-39
2024/02/23 05:08:11;;;;;;;6.57;1.33;;;;;;;4.54;100.00;99035.69;5055780;28;20055;-39
2024/02/23 05:10:37;;;;;;;3.93;1.13;;;;;;;4.63;100.00;99050.31;5055219;28;20366;-39
2024/02/23 05:13:02;;;;;;;4.83;1.50;;;;;;;4.64;100.00;99040.44;5055471;28;20025;-39
2024/02/23 05:15:27;;;;;;;5.03;1.53;;;;;;;4.67;100.00;99052.53;5055184;28;20034;-39
2024/02/23 05:17:53;;;;;;;6.50;1.63;;;;;;;4.68;100.00;99041.56;5054811;28;20067;-39
2024/02/23 05:20:18;;;;;;;5.47;2.03;;;;;;;4.71;100.00;99045.66;5055257;28;20028;-39
2024/02/23 05:22:44;;;;;;;2.80;1.15;;;;;;;4.64;100.00;99033.22;5054863;28;20094;-39
2024/02/23 05:25:09;;;;;;;3.93;1.33;;;;;;;4.65;100.00;99036.69;5055531;28;20033;-39
2024/02/23 05:27:35;;;;;;;4.10;1.47;;;;;;;4.73;100.00;99044.34;5055199;28;20063;-40
2024/02/23 05:30:00;;;;;;;4.00;1.42;;;;;;;4.74;100.00;99048.69;5055389;28;20029;-39
2024/02/23 05:32:26;;;;;;;3.70;1.40;;;;;;;4.77;100.00;99045.50;5054430;28;20029;-39
2024/02/23 05:34:52;;;;;;;3.37;1.10;;;;;;;4.77;100.00;99050.88;5054380;28;20108;-38
2024/02/23 05:37:18;;;;;;;6.38;1.95;;;;;;;4.76;100.00;99038.53;5054848;28;20033;-40
2024/02/23 05:39:45;;;;;;;6.05;1.92;;;;;;;4.75;100.00;99036.09;5055197;28;20086;-40
2024/02/23 05:42:13;;;;;;;5.60;1.73;;;;;;;4.77;100.00;99040.16;5054452;28;20112;-40
2024/02/23 05:44:39;;;;;;;4.55;1.20;;;;;;;4.78;100.00;99039.13;5055069;28;20049;-40
2024/02/23 05:47:05;;;;;;;5.82;1.40;;;;;;;4.77;100.00;99029.44;5055208;28;20033;-40
2024/02/23 05:49:30;;;;;;;4.97;1.25;;;;;;;4.74;100.00;99019.22;5054443;28;20479;-40
2024/02/23 05:51:56;;;;;;;3.17;0.90;;;;;;;4.81;100.00;99033.28;5054891;28;20459;-40
2024/02/23 05:54:21;;;;;;;6.43;1.60;;;;;;;4.81;100.00;99022.56;5054682;28;20454;-40
2024/02/23 05:56:46;;;;;;;4.17;1.13;;;;;;;4.83;100.00;99016.97;5053960;28;20055;-39
2024/02/23 05:59:12;;;;;;;4.33;1.13;;;;;;;4.68;100.00;98996.06;5054763;28;20103;-39
2024/02/23 06:01:37;;;;;;;2.92;1.00;;;;;;;4.76;100.00;99003.72;5054138;28;20271;-39
2024/02/23 06:04:03;;;;;;;6.27;1.37;;;;;;;4.84;100.00;99016.75;5053616;28;20076;-40
2024/02/23 06:06:28;;;;;;;4.35;1.30;;;;;;;4.84;100.00;99016.75;5054352;28;20032;-39
2024/02/23 06:08:54;;;;;;;6.20;1.50;;;;;;;4.81;100.00;99009.16;5054279;28;20025;-39
2024/02/23 06:11:19;;;;;;;5.20;1.20;;;;;;;4.83;100.00;99008.94;5053992;28;20072;-39
2024/02/23 06:13:44;;;;;;;4.03;1.03;;;;;;;4.80;100.00;99006.75;5053758;28;20255;-39
2024/02/23 06:16:24;;;;;;;3.30;1.00;;;;;;;4.84;100.00;99010.56;5053598;28;20393;-39
2024/02/23 06:18:50;;;;;;;3.90;1.00;;;;;;;4.77;100.00;99010.69;5054230;28;20465;-39
2024/02/23 06:21:17;;;;;;;5.13;1.77;;;;;;;4.88;100.00;99014.38;5053785;28;20090;-39
2024/02/23 06:23:43;;;;;;;4.53;1.20;;;;;;;4.88;100.00;99012.53;5053843;28;20032;-39
2024/02/23 06:26:09;;;;;;;3.53;1.20;;;;;;;4.87;100.00;99024.28;5053713;28;20036;-39
2024/02/23 06:28:36;;;;;;;4.10;1.20;;;;;;;4.83;100.00;99006.25;5054087;28;20033;-40
2024/02/23 06:31:03;;;;;;;4.80;1.45;;;;;;;4.89;100.00;99022.19;5053625;28;20037;-39
2024/02/23 06:33:30;;;;;;;4.03;1.08;;;;;;;4.86;100.00;99028.03;5054248;28;20108;-39
2024/02/23 06:35:55;;;;;;;4.68;1.10;;;;;;;4.90;100.00;99031.84;5053547;28;20385;-47
2024/02/23 06:38:20;;;;;;;4.78;1.23;;;;;;;4.92;100.00;99015.53;5053333;28;20036;-40
2024/02/23 06:40:47;;;;;;;5.37;1.17;;;;;;;4.87;100.00;99012.75;5053576;28;20107;-39
2024/02/23 06:43:12;;;;;;;;;;;;;;;4.99;100.00;99026.13;5053731;28;20107;-39
2024/02/23 06:45:37;;;;;;;3.97;1.45;;;;;;;4.93;100.00;99016.34;5053808;28;19951;-39
2024/02/23 06:48:03;;;;;;;4.43;1.13;;;;;;;4.93;100.00;99021.69;5053481;28;20040;-39
2024/02/23 06:50:29;;;;;;;3.83;1.10;;;;;;;4.84;100.00;99013.25;5053476;28;20029;-39
2024/02/23 06:52:54;;;;;;;5.45;1.42;;;;;;;4.93;100.00;99022.53;5053408;28;20033;-43
2024/02/23 06:55:20;;;;;;;5.73;1.30;;;;;;;4.89;100.00;99019.53;5053719;28;20088;-39
2024/02/23 06:57:46;;;;;;;3.40;1.23;;;;;;;4.94;100.00;99026.03;5053355;28;20079;-38
2024/02/23 07:00:12;;;;;;;5.97;1.55;;;;;;;4.90;100.00;99026.50;5053941;28;20029;-40
2024/02/23 07:02:38;;;;;;;5.93;1.45;;;;;;;4.91;100.00;99011.25;5053633;28;20354;-40
2024/02/23 07:05:04;;;;;;;3.83;1.80;;;;;;;4.96;100.00;99027.41;5053115;28;20037;-40
2024/02/23 07:07:31;;;;;;;4.82;1.27;;;;;;;5.00;100.00;99025.06;5053525;28;20025;-40
2024/02/23 07:09:57;;;;;;;7.40;1.60;;;;;;;4.94;100.00;99005.41;5053797;28;20027;-40
2024/02/23 07:12:22;;;;;;;5.27;1.47;;;;;;;5.03;100.00;99032.63;5052961;28;20431;-39
2024/02/23 07:14:49;;;;;;;6.20;1.27;;;;;;;5.00;100.00;99023.19;5053769;28;20025;-39
2024/02/23 07:17:17;;;;;;;5.85;1.38;;;;;;;5.05;100.00;99028.66;5056078;28;20369;-40
2024/02/23 07:19:42;;;;;;;5.70;1.20;;;;;;;5.08;100.00;99028.19;5057742;28;20044;-40
2024/02/23 07:22:08;;;;;;;6.13;1.40;;;;;;;5.08;100.00;99019.34;5056954;28;20469;-40
2024/02/23 07:24:33;;;;;;;6.40;1.63;;;;;;;5.08;100.00;99022.03;5057391;28;20268;-40
2024/02/23 07:26:59;;;;;;;4.77;1.20;;;;;;;5.04;100.00;99010.16;5057008;28;20170;-40
2024/02/23 07:29:24;;;;;;;6.70;1.27;;;;;;;5.09;100.00;99015.59;5057211;28;20025;-39
2024/02/23 07:31:49;;;;;;;5.20;1.10;;;;;;;5.11;100.00;99032.25;5056845;28;20299;-40
2024/02/23 07:34:15;;;;;;;6.17;2.03;;;;;;;5.15;100.00;99025.34;5056859;28;20456;-40
2024/02/23 07:36:40;;;;;;;6.77;1.30;;;;;;;5.18;100.00;99026.75;5057334;28;20378;-40
2024/02/23 07:39:06;;;;;;;4.90;1.10;;;;;;;5.19;100.00;99021.16;5056840;28;20039;-39
2024/02/23 07:41:31;;;;;;;5.43;1.52;;;;;;;5.18;100.00;99008.00;5057269;28;20103;-39
2024/02/23 07:43:56;;;;;;;5.07;2.20;;;;;;;5.28;100.00;99011.66;5056634;28;20528;-39
2024/02/23 07:46:22;;;;;;;3.93;1.40;;;;;;;5.34;100.00;99008.00;5056561;28;20115;-39
2024/02/23 07:48:48;;;;;;;3.53;1.27;;;;;;;5.32;100.00;98998.56;5057122;28;20029;-38
2024/02/23 07:51:13;;;;;;;5.87;1.30;;;;;;;5.36;100.00;98994.38;5057083;28;20376;-39
2024/02/23 07:53:39;;;;;;;6.27;1.67;;;;;;;5.34;100.00;98985.75;5056789;28;20032;-39
2024/02/23 07:56:07;;;;;;;5.63;1.30;;;;;;;5.41;100.00;99005.97;5057483;28;20295;-39
2024/02/23 07:58:32;;;;;;;5.95;1.48;;;;;;;5.40;100.00;99000.88;5057204;28;20057;-39
2024/02/23 08:00:57;;;;;;;7.37;1.37;;;;;;;5.40;100.00;99004.38;5056598;28;20465;-40
2024/02/23 08:03:23;;;;;;;3.83;1.43;;;;;;;5.45;100.00;99011.69;5056655;28;20029;-39
2024/02/23 08:05:48;;;;;;;5.23;1.60;;;;;;;5.46;100.00;98996.41;5056271;28;20052;-39
2024/02/23 08:08:13;;;;;;;5.73;1.30;;;;;;;5.41;100.00;98991.78;5056578;28;20111;-39
2024/02/23 08:10:39;;;;;;;4.40;1.37;;;;;;;5.53;100.00;99002.44;5056219;28;20025;-39
2024/02/23 08:13:04;;;;;;;4.33;1.00;;;;;;;5.58;100.00;98997.16;5056443;28;20021;-39
2024/02/23 08:15:29;;;;;;;6.03;1.40;;;;;;;5.61;100.00;98986.78;5056131;28;20456;-39
2024/02/23 08:17:55;;;;;;;5.30;1.30;;;;;;;5.63;100.00;98986.50;5056817;28;20029;-40
2024/02/23 08:20:21;;;;;;;5.00;1.13;;;;;;;5.76;100.00;98986.19;5056709;28;20033;-39
2024/02/23 08:22:46;;;;;;;4.50;1.25;;;;;;;5.76;100.00;98988.03;5056125;28;20353;-39
2024/02/23 08:25:12;;;;;;;6.00;1.73;;;;;;;5.79;100.00;98985.69;5056597;28;20159;-39
2024/02/23 08:27:37;;;;;;;5.67;1.50;;;;;;;5.81;100.00;98996.19;5055537;28;20275;-39
2024/02/23 08:30:03;;;;;;;3.93;1.17;;;;;;;5.81;100.00;98990.81;5056043;28;20024;-40
2024/02/23 08:32:28;;;;;;;5.53;1.50;;;;;;;5.83;100.00;99000.25;5056442;28;20028;-40
2024/02/23 08:34:59;;;;;;;4.50;1.57;;;;;;;5.83;100.00;98992.19;5056330;28;20028;-39
2024/02/23 08:37:25;;;;;;;4.57;1.00;;;;;;;5.83;100.00;98988.69;5056360;28;20404;-39
2024/02/23 08:39:51;;;;;;;5.28;1.25;;;;;;;5.88;100.00;98991.47;5055771;28;20048;-39
2024/02/23 08:42:16;;;;;;;6.20;1.10;;;;;;;5.87;100.00;99006.75;5055480;28;20108;-39
2024/02/23 08:44:41;;;;;;;5.63;1.87;;;;;;;5.80;100.00;98979.25;5055795;28;20146;-39
2024/02/23 08:47:07;;;;;;;4.10;1.10;;;;;;;5.87;100.00;98993.34;5056253;28;20032;-39
2024/02/23 08:49:33;;;;;;;;;;;;;;;6.00;100.00;98999.44;5056921;28;20032;-39
2024/02/23 08:51:58;;;;;;;4.87;1.13;;;;;;;5.92;100.00;98981.91;5055297;28;19916;-39
2024/02/23 08:54:24;;;;;;;6.85;1.65;;;;;;;5.99;100.00;98989.75;5055782;28;20326;-40
2024/02/23 08:56:49;;;;;;;5.63;1.20;;;;;;;5.92;100.00;98982.72;5055107;28;20032;-39
2024/02/23 08:59:14;;;;;;;4.57;1.33;;;;;;;6.01;100.00;98995.72;5055133;28;20285;-39
2024/02/23 09:01:40;;;;;;;8.40;2.00;;;;;;;5.98;100.00;98988.94;5055077;28;20067;-39
2024/02/23 09:04:05;;;;;;;3.10;1.07;;;;;;;6.02;100.00;98991.97;5055358;28;20032;-40
2024/02/23 09:06:32;;;;;;;5.03;1.30;;;;;;;6.03;100.00;98989.03;5055597;28;20114;-39
2024/02/23 09:08:58;;;;;;;6.43;1.30;;;;;;;6.03;100.00;98982.84;5055272;28;20083;-39
2024/02/23 09:11:23;;;;;;;7.82;2.08;;;;;;;6.05;100.00;99003.03;5055206;28;20056;-39
2024/02/23 09:13:48;;;;;;;8.73;1.80;;;;;;;6.06;100.00;98985.06;5055966;28;20467;-39
2024/02/23 09:16:14;;;;;;;6.90;1.37;;;;;;;6.05;100.00;98978.88;5055306;28;20029;-40
2024/02/23 09:18:40;;;;;;;7.00;1.20;;;;;;;6.13;100.00;98985.69;5055101;28;20081;-40
2024/02/23 09:21:05;;;;;;;4.38;1.10;;;;;;;6.18;100.00;98985.75;5055391;28;20025;-39
2024/02/23 09:23:30;;;;;;;4.47;1.27;;;;;;;6.20;100.00;98972.91;5055821;28;20043;-39
2024/02/23 09:25:56;;;;;;;4.07;1.23;;;;;;;6.27;100.00;98986.13;5054664;28;20029;-40
2024/02/23 09:28:21;;;;;;;6.37;1.80;;;;;;;6.33;100.00;98983.25;5054888;28;20025;-40
2024/02/23 09:30:46;;;;;;;4.13;1.00;;;;;;;6.38;100.00;98986.00;5054533;28;20033;-40
2024/02/23 09:33:12;;;;;;;7.30;1.83;;;;;;;6.36;100.00;98993.53;5054804;28;20040;-39
2024/02/23 09:35:37;;;;;;;4.30;1.07;;;;;;;6.40;100.00;98989.28;5054318;28;20033;-40
2024/02/23 09:38:03;;;;;;;3.40;1.40;;;;;;;6.35;100.00;98997.28;5054740;28;20103;-40
2024/02/23 09:40:28;;;;;;;6.20;1.45;;;;;;;6.38;100.00;98988.69;5054854;28;20033;-40
2024/02/23 09:42:58;;;;;;;3.30;1.00;;;;;;;6.43;100.00;98987.94;5054281;28;20033;-39
2024/02/23 09:45:27;;;;;;;4.55;1.38;;;;;;;6.42;100.00;98989.84;5054800;28;20029;-40
2024/02/23 09:47:57;;;;;;;3.92;1.30;;;;;;;6.51;100.00;99005.53;5054415;28;20036;-39
2024/02/23 09:50:23;;;;;;;5.22;1.60;;;;;;;6.45;100.00;99007.34;5054409;28;20025;-40
2024/02/23 09:52:52;;;;;;;6.10;1.20;;;;;;;6.45;100.00;99012.69;5054088;28;20029;-39
2024/02/23 09:55:21;;;;;;;5.05;1.13;;;;;;;6.41;100.00;99016.94;5054582;28;20098;-39
2024/02/23 09:57:48;;;;;;;4.60;1.75;;;;;;;6.30;100.00;99018.69;5054609;28;20033;-40
2024/02/23 10:00:17;;;;;;;4.15;1.00;;;;;;;6.24;100.00;99025.00;5054454;28;20031;-40
2024/02/23 10:02:42;;;;;;;5.07;1.25;;;;;;;6.06;100.00;99018.06;5054658;28;20361;-39
2024/02/23 10:05:10;;;;;;;3.15;1.10;;;;;;;6.13;100.00;99016.00;5054616;28;20029;-39
2024/02/23 10:07:36;;;;;;;2.38;0.70;;;;;;;6.11;100.00;99022.69;5054009;28;20040;-40
2024/02/23 10:10:01;;;;;;;4.00;1.02;;;;;;;6.05;100.00;99020.97;5054292;28;20025;-39
2024/02/23 10:12:26;;;;;;;3.80;0.98;;;;;;;6.09;100.00;99024.78;5054021;28;20033;-39
2024/02/23 10:14:52;;;;;;;5.33;1.90;;;;;;;6.07;100.00;99019.69;5054732;28;20024;-39
2024/02/23 10:17:20;;;;;;;3.78;0.98;;;;;;;6.03;100.00;99021.22;5054138;28;20404;-39
2024/02/23 10:19:45;;;;;;;4.10;1.35;;;;;;;6.13;100.00;99031.31;5053791;28;20029;-39
2024/02/23 10:22:11;;;;;;;3.33;0.98;;;;;;;6.21;100.00;99030.91;5053577;28;20028;-39
2024/02/23 10:24:37;;;;;;;3.13;0.93;;;;;;;6.24;100.00;99038.44;5054365;28;20036;-39
2024/02/23 10:27:02;;;;;;;2.28;0.98;;;;;;;6.31;100.00;99041.78;5054216;28;20045;-39
2024/02/23 10:29:28;;;;;;;3.47;1.10;;;;;;;6.29;100.00;99035.81;5054285;28;20025;-39
2024/02/23 10:31:57;;;;;;;2.20;0.93;;;;;;;6.37;100.00;99046.16;5054003;28;20112;-39
2024/02/23 10:34:24;;;;;;;4.63;0.95;;;;;;;6.39;100.00;99046.72;5053314;28;20033;-39
2024/02/23 10:36:50;;;;;;;4.65;1.10;;;;;;;6.38;100.00;99050.44;5053628;28;20067;-39
2024/02/23 10:39:18;;;;;;;4.20;1.33;;;;;;;6.42;100.00;99046.22;5053898;28;20104;-39
2024/02/23 10:41:53;;;;;;;2.00;0.80;;;;;;;6.42;100.00;99050.78;5053424;28;20021;-39
2024/02/23 10:44:18;;;;;;;2.42;0.90;;;;;;;6.48;100.00;99060.53;5053801;28;20456;-39
2024/02/23 10:46:44;;;;;;;3.13;1.02;;;;;;;6.47;100.00;99071.50;5053116;28;20052;-39
2024/02/23 10:49:12;;;;;;;3.95;1.00;;;;;;;6.41;100.00;99074.13;5053470;28;20139;-39
2024/02/23 10:51:39;;;;;;;3.60;1.00;;;;;;;6.31;100.00;99082.03;5053206;28;20025;-39
2024/02/23 10:54:06;;;;;;;2.78;0.90;;;;;;;6.36;100.00;99079.44;5054066;28;20123;-39
2024/02/23 10:56:31;;;;;;;5.10;0.98;;;;;;;6.43;100.00;99085.44;5053329;28;20116;-39
2024/02/23 10:58:57;;;;;;;3.58;1.17;;;;;;;6.45;100.00;99088.69;5054012;28;20119;-39
2024/02/23 11:01:24;;;;;;;3.73;1.10;;;;;;;6.48;100.00;99075.81;5053546;28;20147;-38
2024/02/23 11:03:51;;;;;;;3.22;1.02;;;;;;;6.53;100.00;99082.06;5053309;28;20266;-38
2024/02/23 11:06:20;;;;;;;4.93;1.27;;;;;;;6.51;100.00;99084.19;5052939;28;20040;-38
2024/02/23 11:08:47;;;;;;;2.60;0.93;;;;;;;6.61;100.00;99084.34;5053511;28;20025;-38
2024/02/23 11:11:16;;;;;;;3.65;1.08;;;;;;;6.67;100.00;99077.16;5053202;28;20025;-38
2024/02/23 11:13:44;;;;;;;4.30;1.10;;;;;;;6.69;100.00;99088.50;5054019;28;20032;-39
2024/02/23 11:16:10;;;;;;;2.95;1.02;;;;;;;6.70;100.00;99090.09;5053029;28;20024;-39
2024/02/23 11:18:36;;;;;;;3.42;1.00;;;;;;;6.71;100.00;99089.84;5053660;28;20033;-39
2024/02/23 11:21:02;;;;;;;;;;;;;;;6.75;100.00;99082.13;5053555;28;20029;-39
2024/02/23 11:23:44;;;;;;;3.75;0.90;;;;;;;6.75;100.00;99090.19;5053946;28;19948;-39
2024/02/23 11:26:13;;;;;;;1.75;0.73;;;;;;;6.76;100.00;99099.03;5053948;28;20111;-39
2024/02/23 11:28:58;;;;;;;5.95;1.10;;;;;;;6.71;100.00;99070.25;5053896;28;20057;-39